createdAt,value
2019-05-18T00:00:47.800Z,15.49
2019-05-18T00:01:56.971Z,15.47
2019-05-18T00:03:05.349Z,15.47
2019-05-18T00:04:14.178Z,15.50
2019-05-18T00:05:22.284Z,15.50
2019-05-18T00:06:31.196Z,15.44
2019-05-18T00:07:39.010Z,15.42
2019-05-18T00:08:47.697Z,15.44
2019-05-18T00:09:55.690Z,15.49
2019-05-18T00:11:04.613Z,15.46
2019-05-18T00:12:12.491Z,15.44
2019-05-18T00:13:21.308Z,15.43
2019-05-18T00:14:29.411Z,15.45
2019-05-18T00:15:38.322Z,15.45
2019-05-18T00:16:46.244Z,15.40
2019-05-18T00:17:55.046Z,15.42
2019-05-18T00:19:02.999Z,15.41
2019-05-18T00:20:13.288Z,15.33
2019-05-18T00:21:21.169Z,15.33
2019-05-18T00:22:29.267Z,15.34
2019-05-18T00:23:37.118Z,15.29
2019-05-18T00:24:45.885Z,15.25
2019-05-18T00:25:53.957Z,15.20
2019-05-18T00:27:03.086Z,15.19
2019-05-18T00:28:13.194Z,15.22
2019-05-18T00:29:21.835Z,15.23
2019-05-18T00:30:29.932Z,15.23
2019-05-18T00:31:39.065Z,15.25
2019-05-18T00:32:46.936Z,15.25
2019-05-18T00:33:55.754Z,15.29
2019-05-18T00:35:04.194Z,15.24
2019-05-18T00:36:12.937Z,15.24
2019-05-18T00:37:20.791Z,15.16
2019-05-18T00:38:29.675Z,15.20
2019-05-18T00:39:37.758Z,15.19
2019-05-18T00:40:46.493Z,15.10
2019-05-18T00:41:54.267Z,15.13
2019-05-18T00:43:02.597Z,15.14
2019-05-18T00:44:10.771Z,15.20
2019-05-18T00:45:19.671Z,15.24
2019-05-18T00:46:27.830Z,15.24
2019-05-18T00:47:41.423Z,15.22
2019-05-18T00:48:46.358Z,15.16
2019-05-18T00:49:55.276Z,15.21
2019-05-18T00:51:03.170Z,15.21
2019-05-18T00:52:12.105Z,15.18
2019-05-18T00:53:20.176Z,15.07
2019-05-18T00:54:28.988Z,15.02
2019-05-18T00:55:37.092Z,15.10
2019-05-18T00:56:45.889Z,15.12
2019-05-18T00:57:53.898Z,15.09
2019-05-18T00:59:02.913Z,15.03
2019-05-18T01:00:11.693Z,14.86
2019-05-18T01:01:20.771Z,14.94
2019-05-18T01:02:28.946Z,15.00
2019-05-18T01:03:38.117Z,15.01
2019-05-18T01:04:46.259Z,14.97
2019-05-18T01:05:55.015Z,14.93
2019-05-18T01:07:02.802Z,14.90
2019-05-18T01:08:12.027Z,14.90
2019-05-18T01:09:20.314Z,14.98
2019-05-18T01:10:29.233Z,14.93
2019-05-18T01:11:37.338Z,14.90
2019-05-18T01:12:45.870Z,14.91
2019-05-18T01:13:53.790Z,14.92
2019-05-18T01:15:03.137Z,14.85
2019-05-18T01:16:11.255Z,14.89
2019-05-18T01:17:19.509Z,14.91
2019-05-18T01:18:27.709Z,14.90
2019-05-18T01:19:36.471Z,14.95
2019-05-18T01:20:44.891Z,14.97
2019-05-18T01:21:53.853Z,14.95
2019-05-18T01:23:01.953Z,14.92
2019-05-18T01:24:10.705Z,14.94
2019-05-18T01:25:18.758Z,14.97
2019-05-18T01:26:27.769Z,14.97
2019-05-18T01:27:35.803Z,14.82
2019-05-18T01:28:44.523Z,14.73
2019-05-18T01:29:53.898Z,14.73
2019-05-18T01:31:02.436Z,14.67
2019-05-18T01:32:10.660Z,14.74
2019-05-18T01:33:19.042Z,14.80
2019-05-18T01:34:27.099Z,14.85
2019-05-18T01:35:36.008Z,14.81
2019-05-18T01:36:44.255Z,14.76
2019-05-18T01:37:52.569Z,14.82
2019-05-18T01:39:00.831Z,14.81
2019-05-18T01:40:09.938Z,14.81
2019-05-18T01:41:17.964Z,14.84
2019-05-18T01:42:26.982Z,14.89
2019-05-18T01:43:34.792Z,14.92
2019-05-18T01:44:43.666Z,14.89
2019-05-18T01:45:51.752Z,14.88
2019-05-18T01:47:00.689Z,14.78
2019-05-18T01:48:13.691Z,14.68
2019-05-18T01:49:19.173Z,14.69
2019-05-18T01:50:27.247Z,14.68
2019-05-18T01:51:35.961Z,14.60
2019-05-18T01:52:43.865Z,14.60
2019-05-18T01:53:52.605Z,14.62
2019-05-18T01:55:00.499Z,14.62
2019-05-18T01:56:09.275Z,14.51
2019-05-18T01:57:17.177Z,14.51
2019-05-18T01:58:25.782Z,14.54
2019-05-18T01:59:33.858Z,14.55
2019-05-18T02:00:42.608Z,14.54
2019-05-18T02:01:51.513Z,14.55
2019-05-18T02:03:00.835Z,14.53
2019-05-18T02:04:08.930Z,14.50
2019-05-18T02:05:17.668Z,14.54
2019-05-18T02:06:25.771Z,14.48
2019-05-18T02:07:34.189Z,14.38
2019-05-18T02:08:42.136Z,14.34
2019-05-18T02:09:51.447Z,14.24
2019-05-18T02:10:59.382Z,14.26
2019-05-18T02:12:08.160Z,14.28
2019-05-18T02:13:16.019Z,14.31
2019-05-18T02:14:24.838Z,14.32
2019-05-18T02:15:32.865Z,14.32
2019-05-18T02:16:41.674Z,14.35
2019-05-18T02:17:49.600Z,14.30
2019-05-18T02:18:58.344Z,14.26
2019-05-18T02:20:07.484Z,14.25
2019-05-18T02:21:16.362Z,14.29
2019-05-18T02:22:24.569Z,14.29
2019-05-18T02:23:33.518Z,14.31
2019-05-18T02:24:41.557Z,14.28
2019-05-18T02:25:50.135Z,14.23
2019-05-18T02:26:58.359Z,14.28
2019-05-18T02:28:07.575Z,14.29
2019-05-18T02:29:15.594Z,14.31
2019-05-18T02:30:24.357Z,14.31
2019-05-18T02:31:32.372Z,14.28
2019-05-18T02:32:41.201Z,14.22
2019-05-18T02:33:48.899Z,14.14
2019-05-18T02:34:57.707Z,14.16
2019-05-18T02:36:05.809Z,14.04
2019-05-18T02:37:14.626Z,14.03
2019-05-18T02:38:22.892Z,14.03
2019-05-18T02:39:31.808Z,13.97
2019-05-18T02:40:39.728Z,14.03
2019-05-18T02:41:48.386Z,14.03
2019-05-18T02:42:56.530Z,14.08
2019-05-18T02:44:05.943Z,14.10
2019-05-18T02:45:14.813Z,14.13
2019-05-18T02:46:23.767Z,14.14
2019-05-18T02:47:32.045Z,14.10
2019-05-18T02:48:49.279Z,14.11
2019-05-18T02:49:50.807Z,14.11
2019-05-18T02:50:59.841Z,14.00
2019-05-18T02:52:07.942Z,14.01
2019-05-18T02:53:17.153Z,14.04
2019-05-18T02:54:25.275Z,14.00
2019-05-18T02:55:34.221Z,14.04
2019-05-18T02:56:42.706Z,14.05
2019-05-18T02:57:51.516Z,14.07
2019-05-18T02:58:59.703Z,14.07
2019-05-18T03:00:13.429Z,14.07
2019-05-18T03:01:21.635Z,14.06
2019-05-18T03:02:30.541Z,14.06
2019-05-18T03:03:38.431Z,14.06
2019-05-18T03:04:47.444Z,14.05
2019-05-18T03:05:55.759Z,14.06
2019-05-18T03:07:04.916Z,14.02
2019-05-18T03:08:12.855Z,14.05
2019-05-18T03:09:21.695Z,13.99
2019-05-18T03:10:30.257Z,13.93
2019-05-18T03:11:39.054Z,13.97
2019-05-18T03:12:47.089Z,13.92
2019-05-18T03:13:56.029Z,13.95
2019-05-18T03:15:04.765Z,13.99
2019-05-18T03:16:13.677Z,13.93
2019-05-18T03:17:21.687Z,13.92
2019-05-18T03:18:30.624Z,13.90
2019-05-18T03:19:38.451Z,13.92
2019-05-18T03:20:47.268Z,13.91
2019-05-18T03:21:55.362Z,13.98
2019-05-18T03:23:04.148Z,13.99
2019-05-18T03:24:12.070Z,14.01
2019-05-18T03:25:20.803Z,14.00
2019-05-18T03:26:29.078Z,14.01
2019-05-18T03:27:37.997Z,13.99
2019-05-18T03:28:46.198Z,13.97
2019-05-18T03:29:54.822Z,13.93
2019-05-18T03:31:02.804Z,13.90
2019-05-18T03:32:11.480Z,13.92
2019-05-18T03:33:19.622Z,13.92
2019-05-18T03:34:28.013Z,13.88
2019-05-18T03:35:36.714Z,13.86
2019-05-18T03:36:45.711Z,13.85
2019-05-18T03:37:53.582Z,13.86
2019-05-18T03:39:02.344Z,13.89
2019-05-18T03:40:10.751Z,13.91
2019-05-18T03:41:19.268Z,13.92
2019-05-18T03:42:27.269Z,13.92
2019-05-18T03:43:35.902Z,13.83
2019-05-18T03:44:43.815Z,13.82
2019-05-18T03:45:52.431Z,13.78
2019-05-18T03:47:00.507Z,13.83
2019-05-18T03:48:09.237Z,13.86
2019-05-18T03:49:27.198Z,13.91
2019-05-18T03:50:27.362Z,13.89
2019-05-18T03:51:35.352Z,13.87
2019-05-18T03:52:43.990Z,13.90
2019-05-18T03:53:51.808Z,13.91
2019-05-18T03:55:01.084Z,13.90
2019-05-18T03:56:08.987Z,13.95
2019-05-18T03:57:17.659Z,13.95
2019-05-18T03:58:25.724Z,13.97
2019-05-18T03:59:34.745Z,13.98
2019-05-18T04:00:43.251Z,13.99
2019-05-18T04:01:51.916Z,13.97
2019-05-18T04:03:00.467Z,13.96
2019-05-18T04:04:09.386Z,13.96
2019-05-18T04:05:17.477Z,13.91
2019-05-18T04:06:26.300Z,13.84
2019-05-18T04:07:34.242Z,13.69
2019-05-18T04:08:43.042Z,13.66
2019-05-18T04:09:51.081Z,13.66
2019-05-18T04:11:00.007Z,13.67
2019-05-18T04:12:07.996Z,13.72
2019-05-18T04:13:16.912Z,13.64
2019-05-18T04:14:25.141Z,13.69
2019-05-18T04:15:33.982Z,13.73
2019-05-18T04:16:42.031Z,13.64
2019-05-18T04:17:50.841Z,13.61
2019-05-18T04:18:58.982Z,13.63
2019-05-18T04:20:11.214Z,13.71
2019-05-18T04:21:19.056Z,13.75
2019-05-18T04:22:28.043Z,13.79
2019-05-18T04:23:36.213Z,13.80
2019-05-18T04:24:44.845Z,13.85
2019-05-18T04:25:52.981Z,13.84
2019-05-18T04:27:01.635Z,13.84
2019-05-18T04:28:09.441Z,13.85
2019-05-18T04:29:18.157Z,13.78
2019-05-18T04:30:26.372Z,13.74
2019-05-18T04:31:35.371Z,13.71
2019-05-18T04:32:43.302Z,13.72
2019-05-18T04:33:51.887Z,13.80
2019-05-18T04:34:59.989Z,13.84
2019-05-18T04:36:08.910Z,13.87
2019-05-18T04:37:16.916Z,13.90
2019-05-18T04:38:25.923Z,13.91
2019-05-18T04:39:33.770Z,13.95
2019-05-18T04:40:42.725Z,13.95
2019-05-18T04:41:50.718Z,13.96
2019-05-18T04:42:59.323Z,13.93
2019-05-18T04:44:07.433Z,13.93
2019-05-18T04:45:16.541Z,13.87
2019-05-18T04:46:24.595Z,13.93
2019-05-18T04:47:33.370Z,13.97
2019-05-18T04:48:41.150Z,14.04
2019-05-18T04:50:04.445Z,14.08
2019-05-18T04:50:59.714Z,14.16
2019-05-18T04:52:08.411Z,14.16
2019-05-18T04:53:16.599Z,14.20
2019-05-18T04:54:24.736Z,14.24
2019-05-18T04:55:32.829Z,14.28
2019-05-18T04:56:43.078Z,14.32
2019-05-18T04:57:51.018Z,14.33
2019-05-18T04:58:59.853Z,14.30
2019-05-18T05:00:10.337Z,14.36
2019-05-18T05:01:19.349Z,14.40
2019-05-18T05:02:27.401Z,14.45
2019-05-18T05:03:36.439Z,14.51
2019-05-18T05:04:44.431Z,14.56
2019-05-18T05:05:53.332Z,14.58
2019-05-18T05:07:01.228Z,14.63
2019-05-18T05:08:10.048Z,14.70
2019-05-18T05:09:18.460Z,14.76
2019-05-18T05:10:27.156Z,14.75
2019-05-18T05:11:35.384Z,14.81
2019-05-18T05:12:43.874Z,14.87
2019-05-18T05:13:51.698Z,14.93
2019-05-18T05:15:00.582Z,14.98
2019-05-18T05:16:08.555Z,14.98
2019-05-18T05:17:17.199Z,15.06
2019-05-18T05:18:25.156Z,15.10
2019-05-18T05:19:34.867Z,15.13
2019-05-18T05:20:42.733Z,15.15
2019-05-18T05:21:51.461Z,15.17
2019-05-18T05:22:59.593Z,15.20
2019-05-18T05:24:08.313Z,15.23
2019-05-18T05:25:16.357Z,15.24
2019-05-18T05:26:25.217Z,15.26
2019-05-18T05:27:33.109Z,15.30
2019-05-18T05:28:41.822Z,15.30
2019-05-18T05:29:50.021Z,15.30
2019-05-18T05:30:58.951Z,15.30
2019-05-18T05:32:06.851Z,15.34
2019-05-18T05:33:15.949Z,15.35
2019-05-18T05:34:24.171Z,15.36
2019-05-18T05:35:32.965Z,15.35
2019-05-18T05:36:41.277Z,15.37
2019-05-18T05:37:49.851Z,15.39
2019-05-18T05:38:58.011Z,15.37
2019-05-18T05:40:10.166Z,15.38
2019-05-18T05:41:18.624Z,15.36
2019-05-18T05:42:27.524Z,15.42
2019-05-18T05:43:35.685Z,15.50
2019-05-18T05:44:44.502Z,15.39
2019-05-18T05:45:52.603Z,15.44
2019-05-18T05:47:01.453Z,15.49
2019-05-18T05:48:09.957Z,15.55
2019-05-18T05:49:18.698Z,15.62
2019-05-18T05:50:35.261Z,15.66
2019-05-18T05:51:37.486Z,15.73
2019-05-18T05:52:45.833Z,15.78
2019-05-18T05:53:54.859Z,15.80
2019-05-18T05:55:02.902Z,15.82
2019-05-18T05:56:12.039Z,15.85
2019-05-18T05:57:20.160Z,15.86
2019-05-18T05:58:29.294Z,15.91
2019-05-18T05:59:37.586Z,15.95
2019-05-18T06:00:46.456Z,15.97
2019-05-18T06:02:39.049Z,16.01
2019-05-18T06:03:48.280Z,15.99
2019-05-18T06:04:56.463Z,15.96
2019-05-18T06:06:05.432Z,15.96
2019-05-18T06:07:13.772Z,16.02
2019-05-18T06:08:23.196Z,16.09
2019-05-18T06:09:31.401Z,16.16
2019-05-18T06:10:40.615Z,16.17
2019-05-18T06:11:48.815Z,16.22
2019-05-18T06:12:57.836Z,16.25
2019-05-18T06:14:06.233Z,16.29
2019-05-18T06:15:15.424Z,16.30
2019-05-18T06:16:23.447Z,16.38
2019-05-18T06:17:32.489Z,16.42
2019-05-18T06:18:40.780Z,16.46
2019-05-18T06:19:49.730Z,16.49
2019-05-18T06:20:57.731Z,16.51
2019-05-18T06:22:06.520Z,16.58
2019-05-18T06:23:14.701Z,16.62
2019-05-18T06:24:23.427Z,16.63
2019-05-18T06:25:34.219Z,16.63
2019-05-18T06:26:41.468Z,16.68
2019-05-18T06:27:49.754Z,16.74
2019-05-18T06:28:58.566Z,16.81
2019-05-18T06:30:09.553Z,16.83
2019-05-18T06:31:18.455Z,16.84
2019-05-18T06:32:26.469Z,16.88
2019-05-18T06:33:35.324Z,16.94
2019-05-18T06:34:43.557Z,16.92
2019-05-18T06:35:52.472Z,16.93
2019-05-18T06:37:00.684Z,16.93
2019-05-18T06:38:09.500Z,16.91
2019-05-18T06:39:17.795Z,16.96
2019-05-18T06:40:26.435Z,17.03
2019-05-18T06:41:34.776Z,17.05
2019-05-18T06:42:43.605Z,17.10
2019-05-18T06:43:51.796Z,17.18
2019-05-18T06:45:00.522Z,17.25
2019-05-18T06:46:08.725Z,17.28
2019-05-18T06:47:17.141Z,17.29
2019-05-18T06:48:25.799Z,17.35
2019-05-18T06:49:34.646Z,17.44
2019-05-18T06:50:43.910Z,17.43
2019-05-18T06:51:53.201Z,17.40
2019-05-18T06:53:01.424Z,17.49
2019-05-18T06:54:10.162Z,17.56
2019-05-18T06:55:18.369Z,17.60
2019-05-18T06:56:27.598Z,17.55
2019-05-18T06:57:36.210Z,17.53
2019-05-18T06:58:45.399Z,17.60
2019-05-18T06:59:53.799Z,17.64
2019-05-18T07:01:02.890Z,17.68
2019-05-18T07:02:11.115Z,17.75
2019-05-18T07:03:20.313Z,17.80
2019-05-18T07:04:28.337Z,17.85
2019-05-18T07:05:37.126Z,17.81
2019-05-18T07:06:45.174Z,17.78
2019-05-18T07:07:54.328Z,17.78
2019-05-18T07:09:02.651Z,17.77
2019-05-18T07:10:12.230Z,17.80
2019-05-18T07:11:20.679Z,17.83
2019-05-18T07:12:29.500Z,17.83
2019-05-18T07:13:37.798Z,17.75
2019-05-18T07:14:49.080Z,17.75
2019-05-18T07:15:57.070Z,17.79
2019-05-18T07:17:05.865Z,17.83
2019-05-18T07:18:13.953Z,17.86
2019-05-18T07:19:22.904Z,17.81
2019-05-18T07:20:30.963Z,17.82
2019-05-18T07:21:40.100Z,17.80
2019-05-18T07:22:48.525Z,17.78
2019-05-18T07:23:57.425Z,17.78
2019-05-18T07:25:08.435Z,17.75
2019-05-18T07:26:17.314Z,17.74
2019-05-18T07:27:25.364Z,17.78
2019-05-18T07:28:34.840Z,17.68
2019-05-18T07:29:42.928Z,17.71
2019-05-18T07:30:51.632Z,17.61
2019-05-18T07:31:59.596Z,17.62
2019-05-18T07:33:08.429Z,17.65
2019-05-18T07:34:16.574Z,17.74
2019-05-18T07:35:25.172Z,17.80
2019-05-18T07:36:33.363Z,17.87
2019-05-18T07:37:42.142Z,17.86
2019-05-18T07:38:50.173Z,17.77
2019-05-18T07:39:59.048Z,17.74
2019-05-18T07:41:07.171Z,17.74
2019-05-18T07:42:15.917Z,17.77
2019-05-18T07:43:24.299Z,17.78
2019-05-18T07:44:33.081Z,17.78
2019-05-18T07:45:41.459Z,17.81
2019-05-18T07:46:50.531Z,17.85
2019-05-18T07:47:58.648Z,17.85
2019-05-18T07:49:07.360Z,17.86
2019-05-18T07:50:15.731Z,17.90
2019-05-18T07:51:36.303Z,17.95
2019-05-18T07:52:34.690Z,18.00
2019-05-18T07:53:43.489Z,18.02
2019-05-18T07:54:51.421Z,18.05
2019-05-18T07:56:00.031Z,18.10
2019-05-18T07:57:07.950Z,18.16
2019-05-18T07:58:16.723Z,18.18
2019-05-18T07:59:25.140Z,18.26
2019-05-18T08:00:33.718Z,18.31
2019-05-18T08:01:41.694Z,18.38
2019-05-18T08:02:50.576Z,18.46
2019-05-18T08:03:59.110Z,18.44
2019-05-18T08:05:10.829Z,18.51
2019-05-18T08:06:18.988Z,18.57
2019-05-18T08:07:28.004Z,18.66
2019-05-18T08:08:36.354Z,18.75
2019-05-18T08:09:45.070Z,18.79
2019-05-18T08:10:53.102Z,18.87
2019-05-18T08:12:01.986Z,18.93
2019-05-18T08:13:10.170Z,18.96
2019-05-18T08:14:19.090Z,19.00
2019-05-18T08:15:27.299Z,19.05
2019-05-18T08:16:35.701Z,19.09
2019-05-18T08:17:43.810Z,19.12
2019-05-18T08:18:52.769Z,19.20
2019-05-18T08:20:01.138Z,19.24
2019-05-18T08:21:10.005Z,19.28
2019-05-18T08:22:18.022Z,19.33
2019-05-18T08:23:26.745Z,19.37
2019-05-18T08:24:34.626Z,19.41
2019-05-18T08:25:43.418Z,19.45
2019-05-18T08:26:51.849Z,19.50
2019-05-18T08:28:02.355Z,19.56
2019-05-18T08:29:10.591Z,19.62
2019-05-18T08:30:19.725Z,19.68
2019-05-18T08:31:27.809Z,19.72
2019-05-18T08:32:36.729Z,19.74
2019-05-18T08:33:44.731Z,19.76
2019-05-18T08:34:53.561Z,19.80
2019-05-18T08:36:01.963Z,19.82
2019-05-18T08:37:11.257Z,19.87
2019-05-18T08:38:20.192Z,19.88
2019-05-18T08:39:29.464Z,19.88
2019-05-18T08:40:37.625Z,19.91
2019-05-18T08:41:48.871Z,19.99
2019-05-18T08:42:58.219Z,20.06
2019-05-18T08:44:08.307Z,20.11
2019-05-18T08:45:17.572Z,20.16
2019-05-18T08:46:26.497Z,20.18
2019-05-18T08:47:34.577Z,20.17
2019-05-18T08:48:43.360Z,20.13
2019-05-18T08:49:51.703Z,20.15
2019-05-18T08:51:00.514Z,20.18
2019-05-18T08:52:08.960Z,20.21
2019-05-18T08:53:17.716Z,20.27
2019-05-18T08:54:26.611Z,20.35
2019-05-18T08:55:34.986Z,20.39
2019-05-18T08:56:43.317Z,20.45
2019-05-18T08:57:52.476Z,20.50
2019-05-18T08:59:00.470Z,20.51
2019-05-18T09:00:10.931Z,20.54
2019-05-18T09:01:19.164Z,20.58
2019-05-18T09:02:27.936Z,20.56
2019-05-18T09:03:35.933Z,20.57
2019-05-18T09:04:44.867Z,20.56
2019-05-18T09:05:54.374Z,20.60
2019-05-18T09:07:03.085Z,20.64
2019-05-18T09:08:11.383Z,20.69
2019-05-18T09:09:20.109Z,20.71
2019-05-18T09:10:28.215Z,20.76
2019-05-18T09:11:37.088Z,20.79
2019-05-18T09:12:45.330Z,20.85
2019-05-18T09:13:54.231Z,20.91
2019-05-18T09:15:02.253Z,20.93
2019-05-18T09:16:11.134Z,20.99
2019-05-18T09:17:19.081Z,21.03
2019-05-18T09:18:27.854Z,21.01
2019-05-18T09:19:35.891Z,21.08
2019-05-18T09:20:44.879Z,21.16
2019-05-18T09:21:53.283Z,21.21
2019-05-18T09:23:01.492Z,21.19
2019-05-18T09:24:09.610Z,21.18
2019-05-18T09:25:18.644Z,21.24
2019-05-18T09:26:26.798Z,21.33
2019-05-18T09:27:35.580Z,21.39
2019-05-18T09:28:43.577Z,21.42
2019-05-18T09:29:52.446Z,21.49
2019-05-18T09:31:00.616Z,21.55
2019-05-18T09:32:09.574Z,21.63
2019-05-18T09:33:17.610Z,21.68
2019-05-18T09:34:26.582Z,21.73
2019-05-18T09:35:35.212Z,21.78
2019-05-18T09:36:43.982Z,21.87
2019-05-18T09:37:52.045Z,21.95
2019-05-18T09:39:01.093Z,22.01
2019-05-18T09:40:09.845Z,22.08
2019-05-18T09:41:18.703Z,22.09
2019-05-18T09:42:26.698Z,22.15
2019-05-18T09:43:35.491Z,22.14
2019-05-18T09:44:43.687Z,22.18
2019-05-18T09:45:53.280Z,22.22
2019-05-18T09:47:01.304Z,22.29
2019-05-18T09:48:10.004Z,22.38
2019-05-18T09:49:18.269Z,22.45
2019-05-18T09:50:27.267Z,22.50
2019-05-18T09:51:35.365Z,22.61
2019-05-18T09:52:45.946Z,22.72
2019-05-18T09:53:54.073Z,22.80
2019-05-18T09:55:02.837Z,22.83
2019-05-18T09:56:11.042Z,22.88
2019-05-18T09:57:19.905Z,22.94
2019-05-18T09:58:28.041Z,23.04
2019-05-18T09:59:36.772Z,23.17
2019-05-18T10:00:44.851Z,23.24
2019-05-18T10:01:53.917Z,23.30
2019-05-18T10:03:01.979Z,23.35
2019-05-18T10:04:10.976Z,23.47
2019-05-18T10:05:19.253Z,23.60
2019-05-18T10:06:31.269Z,23.78
2019-05-18T10:07:38.315Z,23.91
2019-05-18T10:08:46.961Z,24.12
2019-05-18T10:09:55.577Z,24.38
2019-05-18T10:11:04.177Z,24.57
2019-05-18T10:12:11.971Z,24.81
2019-05-18T10:13:20.773Z,25.12
2019-05-18T10:14:28.941Z,25.29
2019-05-18T10:15:37.701Z,25.58
2019-05-18T10:16:45.787Z,25.87
2019-05-18T10:17:54.391Z,26.22
2019-05-18T10:19:02.594Z,26.52
2019-05-18T10:20:11.834Z,26.90
2019-05-18T10:21:19.913Z,27.32
2019-05-18T10:22:28.706Z,27.64
2019-05-18T10:23:36.726Z,27.91
2019-05-18T10:24:45.635Z,28.14
2019-05-18T10:25:53.839Z,28.45
2019-05-18T10:27:02.868Z,28.61
2019-05-18T10:28:10.858Z,28.92
2019-05-18T10:29:19.043Z,29.10
2019-05-18T10:30:27.359Z,29.39
2019-05-18T10:31:36.163Z,29.70
2019-05-18T10:32:44.356Z,29.83
2019-05-18T10:33:53.133Z,30.15
2019-05-18T10:35:01.374Z,30.45
2019-05-18T10:36:11.759Z,30.80
2019-05-18T10:37:20.029Z,31.12
2019-05-18T10:38:28.721Z,31.38
2019-05-18T10:39:38.732Z,31.76
2019-05-18T10:40:47.078Z,31.93
2019-05-18T10:41:54.934Z,32.30
2019-05-18T10:43:03.976Z,32.34
2019-05-18T10:44:11.984Z,32.61
2019-05-18T10:45:21.186Z,33.05
2019-05-18T10:46:29.261Z,33.12
2019-05-18T10:47:38.338Z,33.33
2019-05-18T10:48:46.642Z,33.52
2019-05-18T10:49:55.760Z,33.66
2019-05-18T10:51:05.623Z,33.96
2019-05-18T10:52:14.168Z,34.08
2019-05-18T10:53:28.727Z,34.17
2019-05-18T10:54:32.341Z,34.40
2019-05-18T10:55:40.520Z,34.47
2019-05-18T10:56:49.482Z,34.67
2019-05-18T10:57:58.536Z,34.94
2019-05-18T10:59:07.584Z,35.17
2019-05-18T11:00:16.472Z,35.38
2019-05-18T11:01:25.144Z,35.52
2019-05-18T11:02:33.618Z,35.44
2019-05-18T11:03:42.649Z,35.70
2019-05-18T11:04:50.985Z,36.04
2019-05-18T11:06:00.130Z,36.03
2019-05-18T11:07:08.311Z,36.26
2019-05-18T11:08:17.186Z,36.41
2019-05-18T11:09:25.677Z,36.47
2019-05-18T11:10:34.603Z,36.47
2019-05-18T11:11:42.772Z,36.55
2019-05-18T11:12:51.867Z,36.57
2019-05-18T11:14:00.220Z,36.76
2019-05-18T11:15:10.713Z,36.87
2019-05-18T11:16:18.769Z,37.03
2019-05-18T11:17:27.576Z,37.17
2019-05-18T11:18:36.180Z,37.43
2019-05-18T11:19:45.258Z,37.36
2019-05-18T11:20:53.526Z,37.54
2019-05-18T11:22:02.627Z,37.67
2019-05-18T11:23:11.014Z,37.65
2019-05-18T11:24:20.240Z,37.94
2019-05-18T11:25:28.267Z,38.18
2019-05-18T11:26:36.964Z,38.26
2019-05-18T11:27:44.764Z,38.43
2019-05-18T11:28:54.015Z,38.25
2019-05-18T11:30:02.366Z,37.59
2019-05-18T11:31:11.498Z,37.40
2019-05-18T11:32:19.589Z,37.75
2019-05-18T11:33:28.409Z,37.91
2019-05-18T11:34:36.601Z,37.67
2019-05-18T11:35:45.525Z,36.96
2019-05-18T11:36:53.856Z,36.55
2019-05-18T11:38:02.577Z,37.02
2019-05-18T11:39:10.768Z,37.47
2019-05-18T11:40:20.034Z,37.59
2019-05-18T11:41:27.957Z,37.89
2019-05-18T11:42:36.903Z,38.25
2019-05-18T11:43:44.972Z,38.34
2019-05-18T11:44:53.710Z,38.51
2019-05-18T11:46:01.908Z,38.73
2019-05-18T11:47:10.796Z,39.07
2019-05-18T11:48:19.238Z,39.32
2019-05-18T11:49:29.151Z,39.56
2019-05-18T11:50:37.712Z,39.78
2019-05-18T11:51:47.005Z,39.83
2019-05-18T11:52:55.251Z,39.84
2019-05-18T11:54:04.197Z,40.07
2019-05-18T11:55:12.412Z,40.04
2019-05-18T11:56:21.087Z,40.36
2019-05-18T11:57:29.185Z,40.47
2019-05-18T11:58:37.848Z,40.38
2019-05-18T11:59:45.864Z,40.63
2019-05-18T12:00:54.749Z,40.52
2019-05-18T12:02:03.294Z,40.20
2019-05-18T12:03:12.101Z,39.27
2019-05-18T12:04:20.328Z,38.93
2019-05-18T12:05:29.010Z,39.13
2019-05-18T12:06:37.009Z,39.40
2019-05-18T12:07:48.399Z,39.46
2019-05-18T12:08:58.583Z,39.87
2019-05-18T12:10:12.400Z,40.13
2019-05-18T12:11:20.687Z,40.40
2019-05-18T12:12:29.502Z,40.34
2019-05-18T12:13:37.537Z,40.26
2019-05-18T12:14:46.345Z,40.03
2019-05-18T12:15:54.289Z,40.03
2019-05-18T12:17:03.479Z,39.76
2019-05-18T12:18:11.630Z,39.80
2019-05-18T12:19:20.371Z,40.10
2019-05-18T12:20:28.738Z,40.29
2019-05-18T12:21:37.596Z,40.42
2019-05-18T12:22:45.752Z,40.55
2019-05-18T12:23:54.506Z,40.38
2019-05-18T12:25:02.665Z,40.63
2019-05-18T12:26:11.521Z,40.76
2019-05-18T12:27:19.701Z,40.62
2019-05-18T12:28:31.083Z,40.81
2019-05-18T12:29:37.920Z,40.93
2019-05-18T12:30:46.573Z,40.82
2019-05-18T12:31:54.683Z,40.88
2019-05-18T12:33:03.682Z,40.92
2019-05-18T12:34:11.969Z,40.45
2019-05-18T12:35:20.844Z,39.85
2019-05-18T12:36:28.872Z,39.72
2019-05-18T12:37:38.296Z,39.81
2019-05-18T12:38:46.614Z,40.00
2019-05-18T12:39:56.173Z,40.14
2019-05-18T12:41:04.620Z,40.10
2019-05-18T12:42:13.747Z,40.34
2019-05-18T12:43:22.069Z,40.33
2019-05-18T12:44:31.530Z,40.40
2019-05-18T12:45:39.630Z,40.47
2019-05-18T12:46:48.751Z,40.60
2019-05-18T12:47:56.954Z,40.47
2019-05-18T12:49:06.547Z,40.59
2019-05-18T12:50:16.380Z,40.41
2019-05-18T12:51:25.199Z,40.48
2019-05-18T12:52:33.210Z,40.02
2019-05-18T12:53:41.902Z,38.95
2019-05-18T12:54:49.858Z,38.09
2019-05-18T12:55:58.845Z,37.16
2019-05-18T12:57:07.016Z,36.73
2019-05-18T12:58:15.891Z,36.95
2019-05-18T12:59:24.331Z,37.19
2019-05-18T13:00:33.324Z,37.36
2019-05-18T13:01:41.345Z,37.54
2019-05-18T13:02:50.264Z,37.87
2019-05-18T13:03:58.475Z,37.39
2019-05-18T13:05:09.120Z,36.95
2019-05-18T13:06:17.163Z,36.56
2019-05-18T13:07:25.833Z,36.78
2019-05-18T13:08:33.822Z,36.74
2019-05-18T13:09:42.628Z,36.71
2019-05-18T13:10:50.792Z,36.38
2019-05-18T13:12:01.080Z,36.49
2019-05-18T13:13:08.946Z,36.27
2019-05-18T13:14:17.783Z,35.78
2019-05-18T13:15:26.188Z,35.87
2019-05-18T13:16:34.876Z,35.86
2019-05-18T13:17:42.926Z,35.61
2019-05-18T13:18:51.807Z,35.41
2019-05-18T13:20:00.046Z,35.27
2019-05-18T13:21:08.977Z,35.24
2019-05-18T13:22:17.027Z,35.32
2019-05-18T13:23:25.894Z,35.24
2019-05-18T13:24:44.735Z,35.17
2019-05-18T13:25:44.483Z,35.14
2019-05-18T13:26:52.585Z,35.05
2019-05-18T13:28:01.716Z,35.04
2019-05-18T13:29:09.801Z,35.06
2019-05-18T13:30:20.392Z,34.93
2019-05-18T13:31:28.527Z,34.92
2019-05-18T13:32:37.176Z,34.94
2019-05-18T13:33:45.470Z,34.81
2019-05-18T13:34:54.396Z,34.89
2019-05-18T13:36:02.791Z,34.82
2019-05-18T13:37:11.629Z,34.79
2019-05-18T13:38:19.696Z,34.76
2019-05-18T13:39:28.288Z,34.70
2019-05-18T13:40:36.079Z,34.51
2019-05-18T13:41:45.065Z,34.40
2019-05-18T13:42:53.124Z,34.36
2019-05-18T13:44:02.134Z,34.41
2019-05-18T13:45:11.612Z,34.46
2019-05-18T13:46:20.482Z,34.40
2019-05-18T13:47:28.517Z,34.19
2019-05-18T13:48:37.314Z,34.14
2019-05-18T13:49:45.479Z,33.92
2019-05-18T13:50:54.220Z,33.96
2019-05-18T13:52:02.371Z,33.98
2019-05-18T13:53:11.206Z,33.97
2019-05-18T13:54:19.178Z,33.92
2019-05-18T13:55:28.130Z,33.84
2019-05-18T13:56:39.797Z,33.64
2019-05-18T13:57:46.755Z,33.50
2019-05-18T13:58:54.721Z,33.38
2019-05-18T14:00:03.561Z,33.37
2019-05-18T14:01:11.759Z,33.41
2019-05-18T14:02:20.659Z,33.41
2019-05-18T14:03:28.715Z,33.28
2019-05-18T14:04:37.868Z,33.18
2019-05-18T14:05:46.248Z,33.13
2019-05-18T14:06:55.038Z,33.05
2019-05-18T14:08:03.136Z,32.93
2019-05-18T14:09:12.340Z,32.79
2019-05-18T14:10:22.594Z,32.75
2019-05-18T14:11:31.377Z,32.77
2019-05-18T14:12:39.805Z,32.70
2019-05-18T14:13:48.872Z,32.66
2019-05-18T14:14:57.259Z,32.56
2019-05-18T14:16:06.256Z,32.69
2019-05-18T14:17:14.189Z,32.62
2019-05-18T14:18:22.960Z,32.55
2019-05-18T14:19:31.064Z,32.38
2019-05-18T14:20:39.697Z,32.40
2019-05-18T14:21:47.877Z,32.47
2019-05-18T14:22:56.523Z,32.43
2019-05-18T14:24:04.381Z,32.44
2019-05-18T14:25:19.166Z,32.40
2019-05-18T14:26:23.531Z,32.30
2019-05-18T14:27:32.265Z,32.27
2019-05-18T14:28:40.292Z,32.11
2019-05-18T14:29:48.983Z,31.97
2019-05-18T14:30:56.946Z,31.90
2019-05-18T14:32:05.936Z,31.90
2019-05-18T14:33:14.159Z,31.81
2019-05-18T14:34:23.314Z,31.74
2019-05-18T14:35:33.493Z,31.64
2019-05-18T14:36:42.339Z,31.57
2019-05-18T14:37:50.518Z,31.54
2019-05-18T14:38:59.221Z,31.57
2019-05-18T14:40:09.387Z,31.55
2019-05-18T14:41:18.078Z,31.54
2019-05-18T14:42:26.284Z,31.53
2019-05-18T14:43:35.192Z,31.42
2019-05-18T14:44:43.202Z,31.38